createdAt,value
2017-12-28T00:00:34.325Z,17.10
2017-12-28T00:01:39.158Z,17.10
2017-12-28T00:02:44.173Z,17.10
2017-12-28T00:03:49.107Z,17.10
2017-12-28T00:04:54.269Z,17.10
2017-12-28T00:05:59.235Z,17.10
2017-12-28T00:07:04.031Z,17.10
2017-12-28T00:08:09.982Z,17.10
2017-12-28T00:09:14.788Z,17.10
2017-12-28T00:10:19.678Z,17.10
2017-12-28T00:11:24.466Z,17.10
2017-12-28T00:12:29.414Z,17.10
2017-12-28T00:13:34.272Z,17.10
2017-12-28T00:14:39.326Z,17.10
2017-12-28T00:15:44.360Z,17.10
2017-12-28T00:16:49.403Z,17.10
2017-12-28T00:17:54.223Z,17.10
2017-12-28T00:18:58.938Z,17.10
2017-12-28T00:20:03.932Z,17.10
2017-12-28T00:21:08.964Z,17.10
2017-12-28T00:22:13.792Z,17.10
2017-12-28T00:23:18.525Z,17.10
2017-12-28T00:24:23.620Z,17.10
2017-12-28T00:25:28.630Z,17.10
2017-12-28T00:26:35.519Z,17.10
2017-12-28T00:27:40.554Z,17.10
2017-12-28T00:28:45.296Z,17.10
2017-12-28T00:29:50.120Z,17.10
2017-12-28T00:30:55.090Z,17.10
2017-12-28T00:31:59.920Z,17.10
2017-12-28T00:33:04.991Z,17.10
2017-12-28T00:34:10.077Z,17.10
2017-12-28T00:35:14.934Z,17.00
2017-12-28T00:36:20.041Z,17.00
2017-12-28T00:37:24.879Z,17.00
2017-12-28T00:38:29.951Z,17.00
2017-12-28T00:39:34.933Z,17.00
2017-12-28T00:40:39.763Z,17.00
2017-12-28T00:41:44.548Z,17.00
2017-12-28T00:42:49.656Z,17.00
2017-12-28T00:43:54.605Z,17.00
2017-12-28T00:45:00.162Z,17.00
2017-12-28T00:46:05.169Z,17.00
2017-12-28T00:47:09.918Z,17.00
2017-12-28T00:48:14.739Z,17.00
2017-12-28T00:49:19.469Z,17.00
2017-12-28T00:50:24.376Z,17.00
2017-12-28T00:51:29.285Z,17.00
2017-12-28T00:52:34.064Z,17.00
2017-12-28T00:53:38.837Z,17.00
2017-12-28T00:54:43.725Z,17.00
2017-12-28T00:55:48.709Z,17.00
2017-12-28T00:56:53.649Z,17.00
2017-12-28T00:57:58.569Z,17.00
2017-12-28T00:59:03.489Z,17.00
2017-12-28T01:00:08.405Z,17.00
2017-12-28T01:01:13.293Z,17.00
2017-12-28T01:02:18.023Z,17.00
2017-12-28T01:03:23.605Z,17.00
2017-12-28T01:04:28.573Z,17.00
2017-12-28T01:05:33.551Z,17.00
2017-12-28T01:06:38.552Z,17.00
2017-12-28T01:07:43.468Z,17.00
2017-12-28T01:08:48.317Z,17.00
2017-12-28T01:09:53.195Z,17.00
2017-12-28T01:10:57.913Z,17.00
2017-12-28T01:12:02.844Z,17.00
2017-12-28T01:13:07.838Z,17.00
2017-12-28T01:14:12.807Z,17.00
2017-12-28T01:15:17.729Z,17.00
2017-12-28T01:16:22.672Z,17.00
2017-12-28T01:17:27.613Z,16.90
2017-12-28T01:18:32.439Z,17.00
2017-12-28T01:19:37.292Z,17.00
2017-12-28T01:20:42.048Z,16.90
2017-12-28T01:21:47.620Z,17.00
2017-12-28T01:22:52.533Z,17.00
2017-12-28T01:23:57.492Z,16.90
2017-12-28T01:25:02.292Z,16.90
2017-12-28T01:26:07.380Z,17.00
2017-12-28T01:27:12.174Z,16.90
2017-12-28T01:28:16.986Z,16.90
2017-12-28T01:29:21.943Z,16.90
2017-12-28T01:30:26.861Z,16.90
2017-12-28T01:31:31.833Z,16.90
2017-12-28T01:32:36.555Z,16.90
2017-12-28T01:33:41.479Z,16.90
2017-12-28T01:34:46.456Z,16.90
2017-12-28T01:35:51.423Z,16.90
2017-12-28T01:36:56.244Z,16.90
2017-12-28T01:38:01.047Z,16.90
2017-12-28T01:39:06.012Z,16.90
2017-12-28T01:40:11.749Z,16.90
2017-12-28T01:41:16.702Z,16.90
2017-12-28T01:42:21.478Z,16.90
2017-12-28T01:43:26.410Z,16.90
2017-12-28T01:44:31.178Z,16.90
2017-12-28T01:45:35.936Z,16.90
2017-12-28T01:46:40.730Z,16.90
2017-12-28T01:47:45.731Z,16.90
2017-12-28T01:48:50.453Z,16.90
2017-12-28T01:49:55.379Z,16.90
2017-12-28T01:51:00.432Z,16.90
2017-12-28T01:52:05.342Z,16.90
2017-12-28T01:53:10.361Z,16.90
2017-12-28T01:54:15.548Z,16.90
2017-12-28T01:55:20.340Z,16.90
2017-12-28T01:56:25.257Z,16.90
2017-12-28T01:57:30.257Z,16.90
2017-12-28T01:58:36.745Z,16.90
2017-12-28T01:59:41.547Z,16.90
2017-12-28T02:00:46.486Z,16.90
2017-12-28T02:01:51.484Z,16.90
2017-12-28T02:02:56.503Z,16.90
2017-12-28T02:04:01.249Z,16.90
2017-12-28T02:05:06.000Z,16.90
2017-12-28T02:06:10.788Z,16.90
2017-12-28T02:07:15.554Z,16.90
2017-12-28T02:08:20.361Z,16.90
2017-12-28T02:09:25.099Z,16.90
2017-12-28T02:10:29.837Z,16.90
2017-12-28T02:11:34.787Z,16.90
2017-12-28T02:12:39.892Z,16.90
2017-12-28T02:13:44.866Z,16.90
2017-12-28T02:14:49.650Z,16.80
2017-12-28T02:15:54.504Z,16.90
2017-12-28T02:16:59.981Z,16.90
2017-12-28T02:18:04.923Z,16.90
2017-12-28T02:19:09.697Z,16.90
2017-12-28T02:20:14.483Z,16.90
2017-12-28T02:21:19.237Z,16.90
2017-12-28T02:22:24.086Z,16.90
2017-12-28T02:23:28.840Z,16.80
2017-12-28T02:24:33.747Z,16.90
2017-12-28T02:25:38.598Z,16.80
2017-12-28T02:26:43.500Z,16.90
2017-12-28T02:27:48.255Z,16.90
2017-12-28T02:28:52.992Z,16.90
2017-12-28T02:29:57.720Z,16.90
2017-12-28T02:31:02.589Z,16.90
2017-12-28T02:32:07.312Z,16.80
2017-12-28T02:33:12.030Z,16.90
2017-12-28T02:34:16.966Z,16.90
2017-12-28T02:35:22.828Z,16.90
2017-12-28T02:36:27.689Z,16.80
2017-12-28T02:37:32.364Z,16.80
2017-12-28T02:38:37.053Z,16.80
2017-12-28T02:39:41.977Z,16.80
2017-12-28T02:40:46.693Z,16.80
2017-12-28T02:41:51.592Z,16.80
2017-12-28T02:42:56.274Z,16.80
2017-12-28T02:44:00.972Z,16.90
2017-12-28T02:45:05.718Z,16.80
2017-12-28T02:46:10.458Z,16.80
2017-12-28T02:47:15.276Z,16.80
2017-12-28T02:48:19.981Z,16.80
2017-12-28T02:49:24.906Z,16.80
2017-12-28T02:50:29.850Z,16.80
2017-12-28T02:51:34.615Z,16.80
2017-12-28T02:52:39.565Z,16.80
2017-12-28T02:53:45.180Z,16.80
2017-12-28T02:54:50.327Z,16.80
2017-12-28T02:55:55.151Z,16.80
2017-12-28T02:57:00.005Z,16.80
2017-12-28T02:58:04.973Z,16.80
2017-12-28T02:59:09.742Z,16.80
2017-12-28T03:00:14.666Z,16.80
2017-12-28T03:01:19.480Z,16.80
2017-12-28T03:02:24.283Z,16.80
2017-12-28T03:03:29.162Z,16.80
2017-12-28T03:04:34.180Z,16.80
2017-12-28T03:05:39.071Z,16.80
2017-12-28T03:06:44.035Z,16.80
2017-12-28T03:07:48.789Z,16.80
2017-12-28T03:08:53.629Z,16.80
2017-12-28T03:09:58.325Z,16.80
2017-12-28T03:11:03.233Z,16.80
2017-12-28T03:12:08.360Z,16.70
2017-12-28T03:13:13.594Z,16.80
2017-12-28T03:14:18.381Z,16.80
2017-12-28T03:15:23.245Z,16.80
2017-12-28T03:16:28.169Z,16.80
2017-12-28T03:17:32.868Z,16.80
2017-12-28T03:18:37.808Z,16.80
2017-12-28T03:19:42.701Z,16.80
2017-12-28T03:20:47.703Z,16.80
2017-12-28T03:21:52.621Z,16.80
2017-12-28T03:22:57.597Z,16.80
2017-12-28T03:24:02.448Z,16.80
2017-12-28T03:25:07.204Z,16.80
2017-12-28T03:26:11.925Z,16.80
2017-12-28T03:27:16.963Z,16.80
2017-12-28T03:28:21.900Z,16.80
2017-12-28T03:29:26.849Z,16.80
2017-12-28T03:30:32.181Z,16.80
2017-12-28T03:31:37.337Z,16.80
2017-12-28T03:32:42.232Z,16.80
2017-12-28T03:33:47.027Z,16.80
2017-12-28T03:34:51.968Z,16.80
2017-12-28T03:35:56.926Z,16.80
2017-12-28T03:37:01.739Z,16.80
2017-12-28T03:38:06.779Z,16.80
2017-12-28T03:39:11.819Z,16.80
2017-12-28T03:40:16.888Z,16.80
2017-12-28T03:41:21.721Z,16.80
2017-12-28T03:42:26.657Z,16.80
2017-12-28T03:43:31.715Z,16.80
2017-12-28T03:44:36.730Z,16.80
2017-12-28T03:45:41.569Z,16.80
2017-12-28T03:46:46.582Z,16.80
2017-12-28T03:47:51.561Z,16.80
2017-12-28T03:48:57.386Z,16.80
2017-12-28T03:50:02.330Z,16.80
2017-12-28T03:51:07.254Z,16.80
2017-12-28T03:52:12.306Z,16.80
2017-12-28T03:53:17.314Z,16.80
2017-12-28T03:54:22.242Z,16.80
2017-12-28T03:55:27.173Z,16.80
2017-12-28T03:56:32.224Z,16.80
2017-12-28T03:57:37.263Z,16.80
2017-12-28T03:58:42.150Z,16.80
2017-12-28T03:59:46.920Z,16.80
2017-12-28T04:00:51.692Z,16.80
2017-12-28T04:01:56.500Z,16.80
2017-12-28T04:03:01.410Z,16.80
2017-12-28T04:04:06.219Z,16.80
2017-12-28T04:05:11.271Z,16.80
2017-12-28T04:06:16.067Z,16.80
2017-12-28T04:07:21.569Z,16.70
2017-12-28T04:08:26.563Z,16.80
2017-12-28T04:09:31.500Z,16.70
2017-12-28T04:10:36.476Z,16.80
2017-12-28T04:11:41.231Z,16.70
2017-12-28T04:12:45.996Z,16.70
2017-12-28T04:13:50.782Z,16.70
2017-12-28T04:14:55.701Z,16.70
2017-12-28T04:16:00.612Z,16.70
2017-12-28T04:17:05.634Z,16.70
2017-12-28T04:18:10.624Z,16.70
2017-12-28T04:19:16.000Z,16.70
2017-12-28T04:20:20.817Z,16.70
2017-12-28T04:21:25.544Z,16.70
2017-12-28T04:22:30.557Z,16.70
2017-12-28T04:23:35.446Z,16.70
2017-12-28T04:24:40.505Z,16.70
2017-12-28T04:25:46.582Z,16.70
2017-12-28T04:26:51.404Z,16.70
2017-12-28T04:27:56.454Z,16.70
2017-12-28T04:29:01.499Z,16.70
2017-12-28T04:30:06.316Z,16.70
2017-12-28T04:31:11.314Z,16.70
2017-12-28T04:32:16.182Z,16.70
2017-12-28T04:33:21.212Z,16.70
2017-12-28T04:34:26.329Z,16.70
2017-12-28T04:35:31.112Z,16.70
2017-12-28T04:36:35.903Z,16.70
2017-12-28T04:37:40.737Z,16.70
2017-12-28T04:38:45.646Z,16.70
2017-12-28T04:39:50.531Z,16.70
2017-12-28T04:40:55.483Z,16.70
2017-12-28T04:42:00.459Z,16.70
2017-12-28T04:43:05.422Z,16.70
2017-12-28T04:44:11.421Z,16.70
2017-12-28T04:45:16.238Z,16.70
2017-12-28T04:46:21.173Z,16.70
2017-12-28T04:47:25.989Z,16.70
2017-12-28T04:48:30.929Z,16.70
2017-12-28T04:49:35.873Z,16.70
2017-12-28T04:50:40.786Z,16.70
2017-12-28T04:51:45.770Z,16.70
2017-12-28T04:52:50.762Z,16.70
2017-12-28T04:53:55.732Z,16.70
2017-12-28T04:55:00.547Z,16.70
2017-12-28T04:56:05.682Z,16.70
2017-12-28T04:57:10.667Z,16.70
2017-12-28T04:58:15.663Z,16.70
2017-12-28T04:59:20.586Z,16.70
2017-12-28T05:00:25.615Z,16.70
2017-12-28T05:01:30.579Z,16.70
2017-12-28T05:02:36.596Z,16.70
2017-12-28T05:03:41.613Z,16.70
2017-12-28T05:04:46.473Z,16.70
2017-12-28T05:05:51.258Z,16.70
2017-12-28T05:06:56.057Z,16.70
2017-12-28T05:08:01.022Z,16.70
2017-12-28T05:09:05.822Z,16.70
2017-12-28T05:10:10.569Z,16.70
2017-12-28T05:11:15.314Z,16.70
2017-12-28T05:12:20.121Z,16.70
2017-12-28T05:13:25.186Z,16.70
2017-12-28T05:14:30.121Z,16.70
2017-12-28T05:15:34.855Z,16.70
2017-12-28T05:16:39.765Z,16.70
2017-12-28T05:17:44.850Z,16.70
2017-12-28T05:18:49.786Z,16.70
2017-12-28T05:19:54.711Z,16.70
2017-12-28T05:21:00.202Z,16.70
2017-12-28T05:22:04.962Z,16.70
2017-12-28T05:23:09.915Z,16.70
2017-12-28T05:24:14.898Z,16.70
2017-12-28T05:25:19.638Z,16.70
2017-12-28T05:26:24.617Z,16.70
2017-12-28T05:27:29.610Z,16.70
2017-12-28T05:28:34.704Z,16.70
2017-12-28T05:29:39.763Z,16.70
2017-12-28T05:30:44.571Z,16.70
2017-12-28T05:31:49.501Z,16.70
2017-12-28T05:32:54.286Z,16.70
2017-12-28T05:33:58.985Z,16.70
2017-12-28T05:35:03.965Z,16.60
2017-12-28T05:36:08.696Z,16.70
2017-12-28T05:37:13.563Z,16.60
2017-12-28T05:38:18.524Z,16.70
2017-12-28T05:39:24.215Z,16.70
2017-12-28T05:40:29.137Z,16.60
2017-12-28T05:41:33.867Z,16.70
2017-12-28T05:42:38.752Z,16.70
2017-12-28T05:43:43.853Z,16.70
2017-12-28T05:44:48.643Z,16.70
2017-12-28T05:45:53.516Z,16.60
2017-12-28T05:46:58.463Z,16.70
2017-12-28T05:48:03.411Z,16.60
2017-12-28T05:49:08.335Z,16.60
2017-12-28T05:50:13.279Z,16.60
2017-12-28T05:51:17.985Z,16.60
2017-12-28T05:52:22.864Z,16.70
2017-12-28T05:53:27.837Z,16.70
2017-12-28T05:54:32.826Z,16.60
2017-12-28T05:55:37.850Z,16.60
2017-12-28T05:56:42.713Z,16.60
2017-12-28T05:57:48.124Z,16.60
2017-12-28T05:58:53.018Z,16.60
2017-12-28T05:59:58.037Z,16.60
2017-12-28T06:01:03.035Z,16.60
2017-12-28T06:02:08.034Z,16.50
2017-12-28T06:03:13.041Z,16.50
2017-12-28T06:04:18.013Z,16.40
2017-12-28T06:05:22.891Z,16.30
2017-12-28T06:06:27.910Z,16.30
2017-12-28T06:07:32.703Z,16.40
2017-12-28T06:08:37.720Z,16.40
2017-12-28T06:09:42.629Z,16.40
2017-12-28T06:10:47.628Z,16.40
2017-12-28T06:11:52.623Z,16.60
2017-12-28T06:12:57.768Z,16.60
2017-12-28T06:14:02.627Z,16.70
2017-12-28T06:15:07.611Z,16.80
2017-12-28T06:16:12.843Z,16.90
2017-12-28T06:17:17.642Z,17.00
2017-12-28T06:18:22.646Z,17.10
2017-12-28T06:19:27.576Z,17.30
2017-12-28T06:20:32.469Z,17.40
2017-12-28T06:21:37.467Z,17.50
2017-12-28T06:22:42.282Z,17.60
2017-12-28T06:23:47.101Z,17.80
2017-12-28T06:24:52.217Z,17.80
2017-12-28T06:25:57.014Z,18.00
2017-12-28T06:27:02.048Z,18.10
2017-12-28T06:28:09.771Z,18.20
2017-12-28T06:29:14.494Z,18.30
2017-12-28T06:30:19.453Z,18.40
2017-12-28T06:31:24.421Z,18.40
2017-12-28T06:32:29.106Z,18.50
2017-12-28T06:33:34.033Z,18.60
2017-12-28T06:34:39.163Z,18.60
2017-12-28T06:35:44.174Z,18.70
2017-12-28T06:36:49.137Z,18.70
2017-12-28T06:37:54.062Z,18.80
2017-12-28T06:38:58.833Z,18.80
2017-12-28T06:40:03.638Z,18.80
2017-12-28T06:41:08.371Z,18.90
2017-12-28T06:42:13.264Z,18.90
2017-12-28T06:43:18.052Z,18.90
2017-12-28T06:44:23.035Z,18.90
2017-12-28T06:45:28.039Z,19.00
2017-12-28T06:46:32.804Z,19.00
2017-12-28T06:47:37.595Z,19.00
2017-12-28T06:48:42.576Z,18.90
2017-12-28T06:49:47.308Z,19.00
2017-12-28T06:50:52.495Z,19.00
2017-12-28T06:51:57.342Z,19.00
2017-12-28T06:53:02.410Z,19.00
2017-12-28T06:54:07.214Z,19.00
2017-12-28T06:55:11.989Z,19.00
2017-12-28T06:56:17.032Z,18.90
2017-12-28T06:57:21.805Z,18.90
2017-12-28T06:58:26.617Z,18.80
2017-12-28T06:59:31.430Z,18.80
2017-12-28T07:00:36.464Z,18.80
2017-12-28T07:01:41.482Z,18.80
2017-12-28T07:02:46.298Z,18.80
2017-12-28T07:03:51.024Z,18.70
2017-12-28T07:04:55.844Z,18.70
2017-12-28T07:06:00.618Z,18.70
2017-12-28T07:07:05.400Z,18.70
2017-12-28T07:08:10.305Z,18.70
2017-12-28T07:09:15.180Z,18.70
2017-12-28T07:10:20.227Z,18.60
2017-12-28T07:11:25.541Z,18.60
2017-12-28T07:12:30.645Z,18.60
2017-12-28T07:13:35.696Z,18.60
2017-12-28T07:14:40.634Z,18.60
2017-12-28T07:15:45.745Z,18.50
2017-12-28T07:16:50.792Z,18.50
2017-12-28T07:17:55.811Z,18.50
2017-12-28T07:19:00.664Z,18.50
2017-12-28T07:20:05.512Z,18.50
2017-12-28T07:21:10.593Z,18.50
2017-12-28T07:22:15.683Z,18.50
2017-12-28T07:23:20.544Z,18.50
2017-12-28T07:24:25.598Z,18.50
2017-12-28T07:25:30.448Z,18.50
2017-12-28T07:26:35.425Z,18.60
2017-12-28T07:27:40.424Z,18.60
2017-12-28T07:28:45.374Z,18.60
2017-12-28T07:29:50.430Z,18.50
2017-12-28T07:30:55.410Z,18.50
2017-12-28T07:32:00.444Z,18.50
2017-12-28T07:33:05.243Z,18.50
2017-12-28T07:34:10.281Z,18.50
2017-12-28T07:35:15.215Z,18.50
2017-12-28T07:36:20.015Z,18.50
2017-12-28T07:37:25.044Z,18.50
2017-12-28T07:38:29.951Z,18.50
2017-12-28T07:39:34.724Z,18.50
2017-12-28T07:40:39.512Z,18.50
2017-12-28T07:41:44.318Z,18.50
2017-12-28T07:42:49.258Z,18.50
2017-12-28T07:43:54.047Z,18.50
2017-12-28T07:44:58.997Z,18.40
2017-12-28T07:46:03.995Z,18.40
2017-12-28T07:47:08.754Z,18.40
2017-12-28T07:48:13.616Z,18.40
2017-12-28T07:49:18.613Z,18.40
2017-12-28T07:50:23.745Z,18.30
2017-12-28T07:51:28.811Z,18.30
2017-12-28T07:52:33.555Z,18.30
2017-12-28T07:53:38.534Z,18.30
2017-12-28T07:54:43.337Z,18.30
2017-12-28T07:55:48.315Z,18.30
2017-12-28T07:56:53.252Z,18.20
2017-12-28T07:57:58.475Z,18.20
2017-12-28T07:59:03.321Z,18.20
2017-12-28T08:00:08.133Z,18.20
2017-12-28T08:01:12.899Z,18.20
2017-12-28T08:02:17.727Z,18.20
2017-12-28T08:03:22.572Z,18.20
2017-12-28T08:04:27.407Z,18.10
2017-12-28T08:05:32.410Z,18.10
2017-12-28T08:06:37.595Z,18.10
2017-12-28T08:07:42.434Z,18.00
2017-12-28T08:08:47.551Z,18.00
2017-12-28T08:09:52.396Z,18.00
2017-12-28T08:10:57.169Z,17.90
2017-12-28T08:12:02.199Z,17.90
2017-12-28T08:13:07.157Z,17.90
2017-12-28T08:14:11.875Z,17.90
2017-12-28T08:15:16.947Z,17.90
2017-12-28T08:16:21.780Z,17.90
2017-12-28T08:17:26.619Z,17.90
2017-12-28T08:18:31.629Z,17.90
2017-12-28T08:19:36.604Z,17.90
2017-12-28T08:20:41.639Z,17.90
2017-12-28T08:21:46.662Z,17.90
2017-12-28T08:22:51.429Z,17.80
2017-12-28T08:23:56.581Z,17.80
2017-12-28T08:25:01.580Z,17.80
2017-12-28T08:26:06.576Z,17.80
2017-12-28T08:27:11.439Z,17.80
2017-12-28T08:28:16.266Z,17.80
2017-12-28T08:29:21.254Z,17.90
2017-12-28T08:30:26.027Z,17.90
2017-12-28T08:31:30.924Z,17.90
2017-12-28T08:32:35.974Z,17.90
2017-12-28T08:33:40.971Z,17.90
2017-12-28T08:34:45.730Z,17.90
2017-12-28T08:35:50.538Z,17.90
2017-12-28T08:36:55.555Z,17.90
2017-12-28T08:38:00.719Z,18.00
2017-12-28T08:39:05.490Z,18.00
2017-12-28T08:40:10.430Z,18.00
2017-12-28T08:41:15.616Z,18.00
2017-12-28T08:42:20.651Z,18.00
2017-12-28T08:43:25.741Z,18.10
2017-12-28T08:44:30.576Z,18.10
2017-12-28T08:45:35.337Z,18.10
2017-12-28T08:46:40.205Z,18.10
2017-12-28T08:47:48.420Z,18.10
2017-12-28T08:48:55.839Z,18.10
2017-12-28T08:50:00.886Z,18.10
2017-12-28T08:51:05.716Z,18.20
2017-12-28T08:52:10.852Z,18.20
2017-12-28T08:53:16.267Z,18.20
2017-12-28T08:54:21.098Z,18.20
2017-12-28T08:55:32.572Z,18.20
2017-12-28T08:56:37.851Z,18.20
2017-12-28T08:57:43.099Z,18.20
2017-12-28T08:58:47.852Z,18.30
2017-12-28T08:59:52.868Z,18.30
2017-12-28T09:00:58.305Z,18.30
2017-12-28T09:02:03.425Z,18.30
2017-12-28T09:03:08.207Z,18.30
2017-12-28T09:04:13.007Z,18.30
2017-12-28T09:05:17.999Z,18.30
2017-12-28T09:06:22.892Z,18.30
2017-12-28T09:07:27.854Z,18.30
2017-12-28T09:08:32.838Z,18.30
2017-12-28T09:09:37.776Z,18.30
2017-12-28T09:10:42.886Z,18.30
2017-12-28T09:11:47.949Z,18.30
2017-12-28T09:12:52.708Z,18.30
2017-12-28T09:13:57.562Z,18.30
2017-12-28T09:15:02.396Z,18.30
2017-12-28T09:16:07.534Z,18.40
2017-12-28T09:17:12.571Z,18.40
2017-12-28T09:18:17.570Z,18.40
2017-12-28T09:19:22.568Z,18.50
2017-12-28T09:20:27.460Z,18.50
2017-12-28T09:21:32.310Z,18.50
2017-12-28T09:22:37.172Z,18.50
2017-12-28T09:23:41.972Z,18.50
2017-12-28T09:24:46.928Z,18.50
2017-12-28T09:25:51.952Z,18.50
2017-12-28T09:26:56.846Z,18.40
2017-12-28T09:28:01.893Z,18.40
2017-12-28T09:29:06.758Z,18.50
2017-12-28T09:30:11.716Z,18.50
2017-12-28T09:31:16.662Z,18.60
2017-12-28T09:32:21.502Z,18.60
2017-12-28T09:33:26.377Z,18.70
2017-12-28T09:34:31.308Z,18.70
2017-12-28T09:35:36.281Z,18.70
2017-12-28T09:36:41.302Z,18.60
2017-12-28T09:37:46.273Z,18.60
2017-12-28T09:38:51.201Z,18.50
2017-12-28T09:39:55.983Z,18.50
2017-12-28T09:41:00.916Z,18.50
2017-12-28T09:42:05.868Z,18.50
2017-12-28T09:43:10.679Z,18.40
2017-12-28T09:44:15.693Z,18.40
2017-12-28T09:45:20.422Z,18.40
2017-12-28T09:46:25.377Z,18.40
2017-12-28T09:47:30.306Z,18.40
2017-12-28T09:48:35.219Z,18.30
2017-12-28T09:49:40.151Z,18.30
2017-12-28T09:50:45.095Z,18.30
2017-12-28T09:51:50.002Z,18.20
2017-12-28T09:52:54.975Z,18.10
2017-12-28T09:53:59.929Z,18.10
2017-12-28T09:55:04.718Z,18.10
2017-12-28T09:56:09.544Z,18.10
2017-12-28T09:57:14.319Z,18.10
2017-12-28T09:58:19.165Z,18.10
2017-12-28T09:59:23.985Z,18.10
2017-12-28T10:00:28.936Z,18.10
2017-12-28T10:01:33.772Z,18.10
2017-12-28T10:02:38.603Z,18.20
2017-12-28T10:03:43.516Z,18.20
2017-12-28T10:04:48.423Z,18.20
2017-12-28T10:05:54.321Z,18.20
2017-12-28T10:06:59.168Z,18.20
2017-12-28T10:08:04.260Z,18.20
2017-12-28T10:09:09.282Z,18.10
2017-12-28T10:10:14.208Z,18.10
2017-12-28T10:11:19.283Z,18.10
2017-12-28T10:12:24.147Z,18.10
2017-12-28T10:13:29.150Z,18.10
2017-12-28T10:14:33.997Z,18.10
2017-12-28T10:15:38.846Z,18.10
2017-12-28T10:16:43.602Z,18.10
2017-12-28T10:17:48.585Z,18.10
2017-12-28T10:18:53.346Z,18.10
2017-12-28T10:19:58.194Z,18.10
2017-12-28T10:21:03.386Z,18.10
2017-12-28T10:22:08.433Z,18.10
2017-12-28T10:23:13.477Z,18.10
2017-12-28T10:24:18.340Z,18.10
2017-12-28T10:25:23.358Z,18.10
2017-12-28T10:26:28.885Z,18.10
2017-12-28T10:27:33.843Z,18.10
2017-12-28T10:28:38.664Z,18.10
2017-12-28T10:29:43.739Z,18.10
2017-12-28T10:30:48.585Z,18.10
2017-12-28T10:31:53.480Z,18.10
2017-12-28T10:32:58.332Z,18.10
2017-12-28T10:34:03.397Z,18.10
2017-12-28T10:35:08.244Z,18.10
2017-12-28T10:36:13.187Z,18.10
2017-12-28T10:37:17.936Z,18.20
2017-12-28T10:38:23.024Z,18.20
2017-12-28T10:39:28.079Z,18.20
2017-12-28T10:40:32.911Z,18.20
2017-12-28T10:41:37.991Z,18.20
2017-12-28T10:42:42.825Z,18.20
2017-12-28T10:43:47.913Z,18.20
2017-12-28T10:44:52.996Z,18.10
2017-12-28T10:45:57.968Z,18.10
2017-12-28T10:47:02.967Z,18.10
2017-12-28T10:48:07.905Z,18.10
2017-12-28T10:49:12.860Z,18.10
2017-12-28T10:50:17.969Z,18.10
2017-12-28T10:51:23.139Z,18.20
2017-12-28T10:52:28.031Z,18.20
2017-12-28T10:53:33.004Z,18.20
2017-12-28T10:54:38.113Z,18.20
2017-12-28T10:55:43.094Z,18.20
2017-12-28T10:56:48.087Z,18.20
2017-12-28T10:57:52.861Z,18.20
2017-12-28T10:58:57.839Z,18.20
2017-12-28T11:00:02.991Z,18.20
2017-12-28T11:01:08.009Z,18.20
2017-12-28T11:02:12.955Z,18.20
2017-12-28T11:03:17.925Z,18.10
2017-12-28T11:04:22.936Z,18.10
2017-12-28T11:05:27.906Z,18.10
2017-12-28T11:06:32.833Z,18.10
2017-12-28T11:07:37.830Z,18.10
2017-12-28T11:08:42.759Z,18.10
2017-12-28T11:09:47.909Z,18.10
2017-12-28T11:10:53.107Z,18.10
2017-12-28T11:11:58.191Z,18.10
2017-12-28T11:13:03.581Z,18.10
2017-12-28T11:14:08.953Z,18.20
2017-12-28T11:15:13.948Z,18.20
2017-12-28T11:16:19.054Z,18.20
2017-12-28T11:17:23.890Z,18.20
2017-12-28T11:18:29.013Z,18.20
2017-12-28T11:19:34.353Z,18.20
2017-12-28T11:20:39.408Z,18.20
2017-12-28T11:21:44.497Z,18.20
2017-12-28T11:22:49.810Z,18.10
2017-12-28T11:23:54.799Z,18.10
2017-12-28T11:24:59.863Z,18.10
2017-12-28T11:26:05.003Z,18.10
2017-12-28T11:27:10.040Z,18.10
2017-12-28T11:28:15.066Z,18.10
2017-12-28T11:29:20.591Z,18.10
2017-12-28T11:30:25.654Z,18.10
2017-12-28T11:31:30.725Z,18.10
2017-12-28T11:32:35.805Z,18.20
2017-12-28T11:33:40.722Z,18.20
2017-12-28T11:34:45.819Z,18.20
2017-12-28T11:35:50.658Z,18.20
2017-12-28T11:36:55.565Z,18.10
2017-12-28T11:38:00.460Z,18.10
2017-12-28T11:39:05.200Z,18.10
2017-12-28T11:40:10.035Z,18.10
2017-12-28T11:41:15.021Z,18.10
2017-12-28T11:42:20.004Z,18.10
2017-12-28T11:43:24.808Z,18.20
2017-12-28T11:44:29.808Z,18.20
2017-12-28T11:45:35.084Z,18.20
2017-12-28T11:46:40.500Z,18.10
2017-12-28T11:47:48.485Z,18.20
2017-12-28T11:48:53.422Z,18.20
2017-12-28T11:49:58.470Z,18.20
2017-12-28T11:51:03.399Z,18.20
2017-12-28T11:52:08.326Z,18.20
2017-12-28T11:53:13.328Z,18.20
2017-12-28T11:54:18.121Z,18.20
2017-12-28T11:55:22.953Z,18.20
2017-12-28T11:56:27.956Z,18.20
2017-12-28T11:57:32.790Z,18.20
2017-12-28T11:58:37.561Z,18.20
2017-12-28T11:59:42.547Z,18.20
2017-12-28T12:00:47.521Z,18.20
2017-12-28T12:01:52.638Z,18.20
2017-12-28T12:02:57.448Z,18.20
2017-12-28T12:04:02.226Z,18.20
2017-12-28T12:05:08.212Z,18.10
2017-12-28T12:06:13.293Z,18.10
2017-12-28T12:07:18.088Z,18.10
2017-12-28T12:08:22.879Z,18.10
2017-12-28T12:09:27.918Z,18.10
2017-12-28T12:10:32.666Z,18.10
2017-12-28T12:11:37.512Z,18.10
2017-12-28T12:12:42.422Z,18.10
2017-12-28T12:13:47.490Z,18.10
2017-12-28T12:14:52.491Z,18.10
2017-12-28T12:15:57.337Z,18.10
2017-12-28T12:17:02.359Z,18.10
2017-12-28T12:18:07.233Z,18.20
2017-12-28T12:19:12.440Z,18.20
2017-12-28T12:20:17.354Z,18.20
2017-12-28T12:21:22.257Z,18.20
2017-12-28T12:22:27.240Z,18.20
2017-12-28T12:23:32.746Z,18.10
2017-12-28T12:24:37.738Z,18.10
2017-12-28T12:25:42.752Z,18.20
2017-12-28T12:26:47.855Z,18.20
2017-12-28T12:27:52.686Z,18.20
2017-12-28T12:29:00.703Z,18.20
2017-12-28T12:30:05.545Z,18.20
2017-12-28T12:31:10.414Z,18.20
2017-12-28T12:32:15.420Z,18.30
2017-12-28T12:33:20.309Z,18.30
2017-12-28T12:34:25.349Z,18.30
2017-12-28T12:35:30.165Z,18.30
2017-12-28T12:36:35.027Z,18.30
2017-12-28T12:37:40.289Z,18.30
2017-12-28T12:38:45.159Z,18.30
2017-12-28T12:39:50.235Z,18.30
2017-12-28T12:40:55.188Z,18.30
2017-12-28T12:42:00.059Z,18.30
2017-12-28T12:43:05.519Z,18.30
2017-12-28T12:44:10.536Z,18.20
2017-12-28T12:45:15.455Z,18.30
2017-12-28T12:46:20.505Z,18.30
2017-12-28T12:47:25.407Z,18.30
2017-12-28T12:48:30.430Z,18.30
2017-12-28T12:49:35.383Z,18.30
2017-12-28T12:50:40.438Z,18.40
2017-12-28T12:51:45.518Z,18.30
2017-12-28T12:52:50.590Z,18.30
2017-12-28T12:53:55.670Z,18.30
2017-12-28T12:55:00.909Z,18.30
2017-12-28T12:56:05.965Z,18.30
2017-12-28T12:57:11.001Z,18.30
2017-12-28T12:58:15.959Z,18.30
2017-12-28T12:59:20.725Z,18.30
2017-12-28T13:00:25.889Z,18.30
2017-12-28T13:01:30.815Z,18.20
2017-12-28T13:02:35.648Z,18.20
2017-12-28T13:03:40.845Z,18.20
2017-12-28T13:04:45.864Z,18.20
2017-12-28T13:05:51.016Z,18.20
2017-12-28T13:06:55.944Z,18.20
2017-12-28T13:08:01.047Z,18.20
2017-12-28T13:09:06.132Z,18.20
2017-12-28T13:10:10.982Z,18.20
2017-12-28T13:11:15.869Z,18.20
2017-12-28T13:12:20.765Z,18.20
2017-12-28T13:13:25.807Z,18.20
2017-12-28T13:14:30.575Z,18.20
2017-12-28T13:15:35.409Z,18.20
2017-12-28T13:16:40.889Z,18.20
2017-12-28T13:17:45.783Z,18.20
2017-12-28T13:18:50.707Z,18.20
2017-12-28T13:19:55.565Z,18.20
2017-12-28T13:21:00.580Z,18.20
2017-12-28T13:22:05.458Z,18.20
2017-12-28T13:23:10.315Z,18.20
2017-12-28T13:24:15.229Z,18.10
2017-12-28T13:25:20.045Z,18.20
2017-12-28T13:26:25.099Z,18.20
2017-12-28T13:27:30.052Z,18.20
2017-12-28T13:28:35.016Z,18.20
2017-12-28T13:29:39.835Z,18.20
2017-12-28T13:30:44.683Z,18.20
2017-12-28T13:31:49.822Z,18.20
2017-12-28T13:32:54.688Z,18.10
2017-12-28T13:33:59.448Z,18.10
2017-12-28T13:35:04.907Z,18.10
2017-12-28T13:36:09.834Z,18.10
2017-12-28T13:37:14.638Z,18.10
2017-12-28T13:38:19.475Z,18.10
2017-12-28T13:39:24.238Z,18.10
2017-12-28T13:40:29.112Z,18.10
2017-12-28T13:41:34.809Z,18.10
2017-12-28T13:42:39.600Z,18.00
2017-12-28T13:43:44.330Z,18.00
2017-12-28T13:44:49.125Z,18.00
2017-12-28T13:45:54.324Z,18.00
2017-12-28T13:46:59.229Z,18.00
2017-12-28T13:48:04.978Z,18.00
2017-12-28T13:49:09.865Z,18.00
2017-12-28T13:50:14.636Z,18.00
2017-12-28T13:51:19.449Z,18.00
2017-12-28T13:52:25.063Z,18.00
2017-12-28T13:53:30.166Z,18.00
2017-12-28T13:54:35.257Z,18.00
2017-12-28T13:55:40.298Z,17.90
2017-12-28T13:56:45.153Z,17.90